createdAt,value
2022-11-06T00:01:12.950Z,87.10
2022-11-06T00:03:40.009Z,87.04
2022-11-06T00:06:31.605Z,87.88
2022-11-06T00:09:03.100Z,87.79
2022-11-06T00:11:30.348Z,87.89
2022-11-06T00:13:57.515Z,87.99
2022-11-06T00:16:24.346Z,88.04
2022-11-06T00:18:51.044Z,88.14
2022-11-06T00:21:20.223Z,88.45
2022-11-06T00:23:48.043Z,88.03
2022-11-06T00:26:23.257Z,88.10
2022-11-06T00:28:50.278Z,87.67
2022-11-06T00:31:19.570Z,88.38
2022-11-06T00:33:46.818Z,89.19
2022-11-06T00:36:16.515Z,88.46
2022-11-06T00:38:43.283Z,88.77
2022-11-06T00:41:12.523Z,88.94
2022-11-06T00:43:39.627Z,88.20
2022-11-06T00:46:09.340Z,88.32
2022-11-06T00:48:37.010Z,88.13
2022-11-06T00:51:12.948Z,88.13
2022-11-06T00:53:39.905Z,88.62
2022-11-06T00:56:09.283Z,88.11
2022-11-06T00:58:36.245Z,88.22
2022-11-06T01:01:07.209Z,88.92
2022-11-06T01:03:33.805Z,88.11
2022-11-06T01:06:12.366Z,88.30
2022-11-06T01:08:39.700Z,89.19
2022-11-06T01:11:13.933Z,88.35
2022-11-06T01:13:41.867Z,87.44
2022-11-06T01:16:15.725Z,87.47
2022-11-06T01:18:44.121Z,87.55
2022-11-06T01:21:16.341Z,88.03
2022-11-06T01:23:43.989Z,89.33
2022-11-06T01:26:12.981Z,87.67
2022-11-06T01:28:40.965Z,88.29
2022-11-06T01:31:11.149Z,88.64
2022-11-06T01:33:37.981Z,87.70
2022-11-06T01:36:04.983Z,88.25
2022-11-06T01:38:31.561Z,87.69
2022-11-06T01:40:58.148Z,87.71
2022-11-06T01:43:54.372Z,88.84
2022-11-06T01:46:23.274Z,87.88
2022-11-06T01:49:00.158Z,88.64
2022-11-06T01:51:29.323Z,88.64
2022-11-06T01:53:57.211Z,88.40
2022-11-06T01:56:24.478Z,87.87
2022-11-06T01:58:54.429Z,88.12
2022-11-06T02:01:22.133Z,87.86
2022-11-06T02:04:03.143Z,88.18
2022-11-06T02:06:30.149Z,88.42
2022-11-06T02:08:56.761Z,88.55
2022-11-06T02:11:23.392Z,89.00
2022-11-06T02:14:09.730Z,88.37
2022-11-06T02:16:49.152Z,88.08
2022-11-06T02:19:32.453Z,87.84
2022-11-06T02:22:43.824Z,89.08
2022-11-06T02:25:32.605Z,88.91
2022-11-06T02:28:17.551Z,88.59
2022-11-06T02:30:47.436Z,88.86
2022-11-06T02:33:17.900Z,89.27
2022-11-06T02:35:52.474Z,88.44
2022-11-06T02:38:28.707Z,88.86
2022-11-06T02:41:02.631Z,87.85
2022-11-06T02:43:38.399Z,88.29
2022-11-06T02:46:32.162Z,88.38
2022-11-06T02:49:10.017Z,89.76
2022-11-06T02:51:43.601Z,88.70
2022-11-06T02:54:12.246Z,87.89
2022-11-06T02:56:45.200Z,87.94
2022-11-06T02:59:21.771Z,87.40
2022-11-06T03:01:56.138Z,86.97
2022-11-06T03:04:45.983Z,88.52
2022-11-06T03:07:31.321Z,88.28
2022-11-06T03:09:58.029Z,88.29
2022-11-06T03:12:36.056Z,89.06
2022-11-06T03:15:27.720Z,89.32
2022-11-06T03:18:00.314Z,89.45
2022-11-06T03:20:36.199Z,88.83
2022-11-06T03:23:08.817Z,87.99
2022-11-06T03:25:43.446Z,89.16
2022-11-06T03:28:25.554Z,89.87
2022-11-06T03:30:59.923Z,90.44
2022-11-06T03:33:40.515Z,90.73
2022-11-06T03:36:14.984Z,90.06
2022-11-06T03:38:49.832Z,90.23
2022-11-06T03:41:39.665Z,89.99
2022-11-06T03:44:10.461Z,89.47
2022-11-06T03:46:42.016Z,89.90
2022-11-06T03:49:13.738Z,89.83
2022-11-06T03:51:45.207Z,89.87
2022-11-06T03:54:17.820Z,89.20
2022-11-06T03:56:50.975Z,89.60
2022-11-06T03:59:23.370Z,89.00
2022-11-06T04:01:53.940Z,89.86
2022-11-06T04:04:38.635Z,89.93
2022-11-06T04:07:12.332Z,89.00
2022-11-06T04:10:01.109Z,89.22
2022-11-06T04:12:48.520Z,88.87
2022-11-06T04:15:18.141Z,88.68
2022-11-06T04:17:44.565Z,89.19
2022-11-06T04:20:36.731Z,88.64
2022-11-06T04:23:22.537Z,89.56
2022-11-06T04:26:19.764Z,90.12
2022-11-06T04:29:02.414Z,90.14
2022-11-06T04:31:35.190Z,89.18
2022-11-06T04:34:27.018Z,88.35
2022-11-06T04:37:08.955Z,89.44
2022-11-06T04:39:52.876Z,89.58
2022-11-06T04:42:28.428Z,89.38
2022-11-06T04:45:20.591Z,90.44
2022-11-06T04:47:48.175Z,90.77
2022-11-06T04:50:17.443Z,90.13
2022-11-06T04:52:45.241Z,90.41
2022-11-06T04:55:11.759Z,90.76
2022-11-06T04:57:38.345Z,91.23
2022-11-06T05:00:06.469Z,90.11
2022-11-06T05:02:33.395Z,90.05
2022-11-06T05:05:00.024Z,89.41
2022-11-06T05:07:26.697Z,89.68
2022-11-06T05:09:53.255Z,89.38
2022-11-06T05:12:19.816Z,89.41
2022-11-06T05:14:46.403Z,89.44
2022-11-06T05:17:12.986Z,90.20
2022-11-06T05:19:39.632Z,90.55
2022-11-06T05:22:24.959Z,90.53
2022-11-06T05:24:51.527Z,90.45
2022-11-06T05:27:18.165Z,90.63
2022-11-06T05:29:45.301Z,90.45
2022-11-06T05:32:12.161Z,90.74
2022-11-06T05:34:38.725Z,91.05
2022-11-06T05:37:05.323Z,91.90
2022-11-06T05:39:31.984Z,92.89
2022-11-06T05:41:58.743Z,92.48
2022-11-06T05:44:25.366Z,92.00
2022-11-06T05:46:51.952Z,91.52
2022-11-06T05:49:18.830Z,91.80
2022-11-06T05:51:45.941Z,92.07
2022-11-06T05:54:12.729Z,92.08
2022-11-06T05:56:39.336Z,93.09
2022-11-06T05:59:06.648Z,92.26
2022-11-06T06:01:33.352Z,91.82
2022-11-06T06:04:00.075Z,91.81
2022-11-06T06:06:26.933Z,91.74
2022-11-06T06:08:53.432Z,91.33
2022-11-06T06:11:20.190Z,91.94
2022-11-06T06:13:48.082Z,91.63
2022-11-06T06:16:14.672Z,91.19
2022-11-06T06:18:41.182Z,91.71
2022-11-06T06:21:07.707Z,91.16
2022-11-06T06:23:35.180Z,91.22
2022-11-06T06:26:01.741Z,92.42
2022-11-06T06:28:28.300Z,91.78
2022-11-06T06:31:00.084Z,92.27
2022-11-06T06:33:28.058Z,91.09
2022-11-06T06:35:54.605Z,92.29
2022-11-06T06:38:21.104Z,93.99
2022-11-06T06:40:47.647Z,92.98
2022-11-06T06:43:14.213Z,93.03
2022-11-06T06:45:41.792Z,93.29
2022-11-06T06:48:09.270Z,92.53
2022-11-06T06:50:35.936Z,91.97
2022-11-06T06:53:02.707Z,92.44
2022-11-06T06:55:29.539Z,93.36
2022-11-06T06:58:00.236Z,92.72
2022-11-06T07:00:28.929Z,92.74
2022-11-06T07:02:55.954Z,93.97
2022-11-06T07:05:22.982Z,93.93
2022-11-06T07:07:49.617Z,93.68
2022-11-06T07:10:16.385Z,93.84
2022-11-06T07:12:42.986Z,93.45
2022-11-06T07:15:10.076Z,92.54
2022-11-06T07:17:36.715Z,93.77
2022-11-06T07:20:04.319Z,94.95
2022-11-06T07:22:36.670Z,95.26
2022-11-06T07:25:04.814Z,94.68
2022-11-06T07:27:31.375Z,94.91
2022-11-06T07:29:57.962Z,95.46
2022-11-06T07:32:24.473Z,94.85
2022-11-06T07:34:51.034Z,94.77
2022-11-06T07:37:17.630Z,94.87
2022-11-06T07:39:44.233Z,94.96
2022-11-06T07:42:10.793Z,96.23
2022-11-06T07:44:37.391Z,95.45
2022-11-06T07:47:04.059Z,95.57
2022-11-06T07:49:30.660Z,93.56
2022-11-06T07:51:57.213Z,93.87
2022-11-06T07:54:23.757Z,93.84
2022-11-06T07:56:50.298Z,93.69
2022-11-06T07:59:16.982Z,93.83
2022-11-06T08:01:43.735Z,93.33
2022-11-06T08:04:10.850Z,93.03
2022-11-06T08:06:37.479Z,92.74
2022-11-06T08:09:08.370Z,92.38
2022-11-06T08:11:35.121Z,91.19
2022-11-06T08:14:01.856Z,90.79
2022-11-06T08:16:28.490Z,90.35
2022-11-06T08:18:55.979Z,90.16
2022-11-06T08:21:22.904Z,90.65
2022-11-06T08:23:49.527Z,90.76
2022-11-06T08:26:16.403Z,89.43
2022-11-06T08:28:43.274Z,90.03
2022-11-06T08:31:10.071Z,89.20
2022-11-06T08:33:38.121Z,89.06
2022-11-06T08:36:06.392Z,89.46
2022-11-06T08:38:32.996Z,88.55
2022-11-06T08:41:07.359Z,88.11
2022-11-06T08:43:35.099Z,88.17
2022-11-06T08:46:01.804Z,87.80
2022-11-06T08:48:28.481Z,87.41
2022-11-06T08:50:55.147Z,87.78
2022-11-06T08:53:21.762Z,88.56
2022-11-06T08:55:48.417Z,87.62
2022-11-06T08:58:15.361Z,86.52
2022-11-06T09:00:42.535Z,86.35
2022-11-06T09:03:16.249Z,85.99
2022-11-06T09:05:44.106Z,85.87
2022-11-06T09:08:12.070Z,86.56
2022-11-06T09:10:40.699Z,85.77
2022-11-06T09:13:07.875Z,85.69
2022-11-06T09:15:34.501Z,85.10
2022-11-06T09:18:01.228Z,84.79
2022-11-06T09:20:28.255Z,84.72
2022-11-06T09:22:59.654Z,83.85
2022-11-06T09:25:26.499Z,83.97
2022-11-06T09:27:58.958Z,84.17
2022-11-06T09:30:31.143Z,83.21
2022-11-06T09:33:01.429Z,83.62
2022-11-06T09:35:30.567Z,83.21
2022-11-06T09:38:04.932Z,82.57
2022-11-06T09:40:36.128Z,81.81
2022-11-06T09:43:27.257Z,80.98
2022-11-06T09:46:31.758Z,80.62
2022-11-06T09:49:06.078Z,80.57
2022-11-06T09:51:48.886Z,80.53
2022-11-06T09:54:41.633Z,79.88
2022-11-06T09:57:19.244Z,80.13
2022-11-06T09:59:47.896Z,80.25
2022-11-06T10:02:30.743Z,79.91
2022-11-06T10:05:25.517Z,79.28
2022-11-06T10:07:56.355Z,78.02
2022-11-06T10:10:29.364Z,78.15
2022-11-06T10:13:32.935Z,77.45
2022-11-06T10:16:24.845Z,77.29
2022-11-06T10:19:25.637Z,76.02
2022-11-06T10:22:07.409Z,76.82
2022-11-06T10:24:40.155Z,75.86
2022-11-06T10:27:15.859Z,75.77
2022-11-06T10:29:54.969Z,74.92
2022-11-06T10:32:30.749Z,75.67
2022-11-06T10:35:02.973Z,75.08
2022-11-06T10:37:35.391Z,74.67
2022-11-06T10:40:07.141Z,74.47
2022-11-06T10:42:39.816Z,73.57
2022-11-06T10:45:14.579Z,73.89
2022-11-06T10:48:06.353Z,74.20
2022-11-06T10:51:01.926Z,73.52
2022-11-06T10:53:52.320Z,73.72
2022-11-06T10:56:37.741Z,73.65
2022-11-06T10:59:05.152Z,73.95
2022-11-06T11:01:31.935Z,73.89
2022-11-06T11:03:58.722Z,73.58
2022-11-06T11:06:25.580Z,74.10
2022-11-06T11:08:52.955Z,73.06
2022-11-06T11:11:25.214Z,72.53
2022-11-06T11:14:00.750Z,73.10
2022-11-06T11:16:32.262Z,73.14
2022-11-06T11:19:25.772Z,72.94
2022-11-06T11:21:55.307Z,72.91
2022-11-06T11:24:21.729Z,71.59
2022-11-06T11:26:51.284Z,73.20
2022-11-06T11:29:26.005Z,71.82
2022-11-06T11:32:02.619Z,71.82
2022-11-06T11:34:32.160Z,72.57
2022-11-06T11:37:03.311Z,73.24
2022-11-06T11:39:32.650Z,73.38
2022-11-06T11:42:31.801Z,73.50
2022-11-06T11:45:10.226Z,72.12
2022-11-06T11:47:38.716Z,73.01
2022-11-06T11:50:33.026Z,70.13
2022-11-06T11:53:14.757Z,70.46
2022-11-06T11:55:45.347Z,69.65
2022-11-06T11:58:23.509Z,69.01
2022-11-06T12:00:58.796Z,66.40
2022-11-06T12:03:34.224Z,66.54
2022-11-06T12:06:20.671Z,67.03
2022-11-06T12:08:56.404Z,65.63
2022-11-06T12:11:28.020Z,67.36
2022-11-06T12:14:29.374Z,66.70
2022-11-06T12:17:17.924Z,66.71
2022-11-06T12:19:51.367Z,67.07
2022-11-06T12:22:28.795Z,66.87
2022-11-06T12:25:10.149Z,66.98
2022-11-06T12:27:52.784Z,66.11
2022-11-06T12:30:21.110Z,66.82
2022-11-06T12:33:14.951Z,65.71
2022-11-06T12:35:48.773Z,66.05
2022-11-06T12:38:31.106Z,65.54
2022-11-06T12:41:04.092Z,66.59
2022-11-06T12:43:47.931Z,65.76
2022-11-06T12:46:29.410Z,66.77
2022-11-06T12:49:23.786Z,66.66
2022-11-06T12:51:56.306Z,65.71
2022-11-06T12:54:52.458Z,66.50
2022-11-06T12:57:36.968Z,65.88
2022-11-06T13:00:19.954Z,66.76
2022-11-06T13:03:00.301Z,65.74
2022-11-06T13:05:38.807Z,67.09
2022-11-06T13:08:44.632Z,66.09
2022-11-06T13:11:23.921Z,67.15
2022-11-06T13:14:39.884Z,67.89
2022-11-06T13:17:25.299Z,67.41
2022-11-06T13:20:07.615Z,67.50
2022-11-06T13:22:44.954Z,67.41
2022-11-06T13:25:11.472Z,66.53
2022-11-06T13:28:10.282Z,65.41
2022-11-06T13:30:38.917Z,66.40
2022-11-06T13:33:22.894Z,65.76
2022-11-06T13:35:49.724Z,64.28
2022-11-06T13:38:23.123Z,64.31
2022-11-06T13:40:53.701Z,63.37
2022-11-06T13:43:28.935Z,64.37
2022-11-06T13:46:01.564Z,63.73
2022-11-06T13:48:44.432Z,62.56
2022-11-06T13:51:20.074Z,63.61
2022-11-06T13:54:23.769Z,61.75
2022-11-06T13:57:07.258Z,59.18
2022-11-06T14:00:03.983Z,58.24
2022-11-06T14:03:16.580Z,58.01
2022-11-06T14:05:57.456Z,60.04
2022-11-06T14:08:30.603Z,59.12
2022-11-06T14:11:11.086Z,59.76
2022-11-06T14:13:38.491Z,59.04
2022-11-06T14:16:34.666Z,59.29
2022-11-06T14:19:01.530Z,59.31
2022-11-06T14:21:37.293Z,58.75
2022-11-06T14:24:30.387Z,58.88
2022-11-06T14:26:58.327Z,59.09
2022-11-06T14:29:27.920Z,59.74
2022-11-06T14:31:58.688Z,60.26
2022-11-06T14:34:30.846Z,59.63
2022-11-06T14:36:57.692Z,61.49
2022-11-06T14:39:56.784Z,61.91
2022-11-06T14:42:27.068Z,62.55
2022-11-06T14:45:00.911Z,62.24
2022-11-06T14:47:49.539Z,61.53
2022-11-06T14:50:19.108Z,61.75
2022-11-06T14:52:47.755Z,62.89
2022-11-06T14:55:43.074Z,62.59
2022-11-06T14:58:33.715Z,63.23
2022-11-06T15:01:14.756Z,62.63
2022-11-06T15:03:51.498Z,62.87
2022-11-06T15:06:18.164Z,63.09
2022-11-06T15:08:50.844Z,63.93
2022-11-06T15:11:29.961Z,64.06
2022-11-06T15:14:16.594Z,65.36
2022-11-06T15:16:52.094Z,64.32
2022-11-06T15:19:37.570Z,64.99
2022-11-06T15:22:19.678Z,65.54
2022-11-06T15:25:04.417Z,64.92
2022-11-06T15:27:38.937Z,65.63
2022-11-06T15:30:16.093Z,64.97
2022-11-06T15:32:45.873Z,63.81
2022-11-06T15:35:27.496Z,63.92
2022-11-06T15:38:13.464Z,63.38
2022-11-06T15:40:41.583Z,63.06
2022-11-06T15:43:26.596Z,63.30
2022-11-06T15:46:12.577Z,62.61
2022-11-06T15:48:39.249Z,62.91
2022-11-06T15:51:21.308Z,64.04
2022-11-06T15:53:48.012Z,66.47
2022-11-06T15:56:17.542Z,67.49
2022-11-06T15:58:44.631Z,68.53
2022-11-06T16:01:11.812Z,68.65
2022-11-06T16:03:53.299Z,69.96
2022-11-06T16:06:20.800Z,70.58
2022-11-06T16:08:49.218Z,70.60
2022-11-06T16:11:19.160Z,71.41
2022-11-06T16:13:46.814Z,71.18
2022-11-06T16:16:40.765Z,71.24
2022-11-06T16:19:21.565Z,71.57
2022-11-06T16:22:10.839Z,71.48
2022-11-06T16:24:43.460Z,71.27
2022-11-06T16:27:11.196Z,70.20
2022-11-06T16:29:38.531Z,69.91
2022-11-06T16:32:13.963Z,69.84
2022-11-06T16:34:46.489Z,72.00
2022-11-06T16:37:15.870Z,71.54
2022-11-06T16:39:56.074Z,72.30
2022-11-06T16:42:22.639Z,72.61
2022-11-06T16:44:50.900Z,73.39
2022-11-06T16:47:18.544Z,73.22
2022-11-06T16:49:52.864Z,73.37
2022-11-06T16:52:30.640Z,73.18
2022-11-06T16:55:02.810Z,73.21
2022-11-06T16:57:36.737Z,73.46
2022-11-06T17:00:33.212Z,73.66
2022-11-06T17:03:03.957Z,74.79
2022-11-06T17:05:33.801Z,74.49
2022-11-06T17:08:41.630Z,74.40
2022-11-06T17:11:28.356Z,74.01
2022-11-06T17:13:59.731Z,73.24
2022-11-06T17:19:09.645Z,74.46
2022-11-06T17:21:41.437Z,73.85
2022-11-06T17:24:37.386Z,75.46
2022-11-06T17:27:05.283Z,74.83
2022-11-06T17:29:33.482Z,75.41
2022-11-06T17:32:00.098Z,74.77
2022-11-06T17:34:26.720Z,75.06
2022-11-06T17:36:53.574Z,71.59
2022-11-06T17:39:20.096Z,72.92
2022-11-06T17:41:46.798Z,74.02
2022-11-06T17:44:13.528Z,74.24
2022-11-06T17:46:42.599Z,74.13
2022-11-06T17:49:16.772Z,73.65
2022-11-06T17:51:49.974Z,72.75
2022-11-06T17:54:17.981Z,73.61
2022-11-06T17:56:44.963Z,74.79
2022-11-06T17:59:13.243Z,74.53
2022-11-06T18:01:40.688Z,73.20
2022-11-06T18:04:07.676Z,73.06
2022-11-06T18:06:34.471Z,73.84
2022-11-06T18:09:04.425Z,73.12
2022-11-06T18:11:31.203Z,73.42
2022-11-06T18:13:57.915Z,74.72
2022-11-06T18:16:27.969Z,74.15
2022-11-06T18:18:55.120Z,75.21
2022-11-06T18:21:22.307Z,75.20
2022-11-06T18:23:49.368Z,74.38
2022-11-06T18:26:16.539Z,74.55
2022-11-06T18:28:43.174Z,74.94
2022-11-06T18:31:09.807Z,74.18
2022-11-06T18:33:36.528Z,74.50
2022-11-06T18:36:06.239Z,75.90
2022-11-06T18:38:33.147Z,75.70
2022-11-06T18:41:05.857Z,77.18
2022-11-06T18:43:32.442Z,75.77
2022-11-06T18:46:03.642Z,74.97
2022-11-06T18:48:32.017Z,75.16
2022-11-06T18:51:08.415Z,75.80
2022-11-06T18:53:35.380Z,76.53
2022-11-06T18:56:02.369Z,76.37
2022-11-06T18:58:29.404Z,75.68
2022-11-06T19:01:01.496Z,76.31
2022-11-06T19:03:28.753Z,76.58
2022-11-06T19:05:56.491Z,75.89
2022-11-06T19:08:23.173Z,75.66
2022-11-06T19:10:49.698Z,76.86
2022-11-06T19:13:17.424Z,75.88
2022-11-06T19:15:44.953Z,75.83
2022-11-06T19:18:13.019Z,75.60
2022-11-06T19:20:41.017Z,75.55
2022-11-06T19:23:08.077Z,75.37
2022-11-06T19:25:35.408Z,74.41
2022-11-06T19:28:03.014Z,74.26
2022-11-06T19:30:29.562Z,73.36
2022-11-06T19:32:56.228Z,73.69
2022-11-06T19:35:22.790Z,73.64
2022-11-06T19:37:49.500Z,72.65
2022-11-06T19:40:16.339Z,72.72
2022-11-06T19:42:42.891Z,72.48
2022-11-06T19:45:10.420Z,72.00
2022-11-06T19:47:37.520Z,72.90
2022-11-06T19:50:04.945Z,71.81
2022-11-06T19:52:41.532Z,70.44
2022-11-06T19:55:26.731Z,69.73
2022-11-06T19:57:57.475Z,69.33
2022-11-06T20:00:23.963Z,69.40
2022-11-06T20:02:50.947Z,67.64
2022-11-06T20:05:18.165Z,67.25
2022-11-06T20:07:44.895Z,66.97
2022-11-06T20:10:11.550Z,66.49
2022-11-06T20:12:38.374Z,67.71
2022-11-06T20:15:05.518Z,66.63
2022-11-06T20:17:32.069Z,66.70
2022-11-06T20:19:58.716Z,67.35
2022-11-06T20:22:25.524Z,65.99
2022-11-06T20:24:52.266Z,66.74
2022-11-06T20:27:19.215Z,66.05
2022-11-06T20:29:45.799Z,66.19
2022-11-06T20:32:18.669Z,66.42
2022-11-06T20:34:45.930Z,66.38
2022-11-06T20:37:12.673Z,66.79
2022-11-06T20:39:41.448Z,66.40
2022-11-06T20:42:08.069Z,67.03
2022-11-06T20:44:34.697Z,66.60
2022-11-06T20:47:01.432Z,67.39
2022-11-06T20:49:28.334Z,67.85
2022-11-06T20:52:13.223Z,67.98
2022-11-06T20:54:46.413Z,67.95
2022-11-06T20:57:15.187Z,68.39
2022-11-06T20:59:41.758Z,69.89
2022-11-06T21:02:10.965Z,69.57
2022-11-06T21:04:37.866Z,69.50
2022-11-06T21:07:04.689Z,70.42
2022-11-06T21:09:31.710Z,69.89
2022-11-06T21:11:58.344Z,70.94
2022-11-06T21:14:25.053Z,71.62
2022-11-06T21:16:52.645Z,71.13
2022-11-06T21:19:19.323Z,71.37
2022-11-06T21:21:46.021Z,71.33
2022-11-06T21:24:12.699Z,71.19
2022-11-06T21:26:39.848Z,71.19
2022-11-06T21:29:10.613Z,71.77
2022-11-06T21:31:43.950Z,70.80
2022-11-06T21:34:15.494Z,72.61
2022-11-06T21:36:42.260Z,71.88
2022-11-06T21:39:12.247Z,72.31
2022-11-06T21:41:39.120Z,72.17
2022-11-06T21:44:07.679Z,72.69
2022-11-06T21:46:34.808Z,72.09
2022-11-06T21:49:01.427Z,72.52
2022-11-06T21:51:30.515Z,73.04
2022-11-06T21:54:16.200Z,73.34
2022-11-06T21:56:43.721Z,74.08
2022-11-06T21:59:13.867Z,72.78
2022-11-06T22:01:42.006Z,73.97
2022-11-06T22:04:09.441Z,75.01
2022-11-06T22:06:36.380Z,75.35
2022-11-06T22:09:03.948Z,75.78
2022-11-06T22:11:39.184Z,76.48
2022-11-06T22:14:08.753Z,75.90
2022-11-06T22:16:36.846Z,76.91
2022-11-06T22:19:06.640Z,76.56
2022-11-06T22:21:34.137Z,77.20
2022-11-06T22:24:00.840Z,77.38
2022-11-06T22:26:30.830Z,77.55
2022-11-06T22:28:59.999Z,78.56
2022-11-06T22:31:27.990Z,78.23
2022-11-06T22:33:54.982Z,78.74
2022-11-06T22:36:22.761Z,79.06
2022-11-06T22:38:49.869Z,79.96
2022-11-06T22:41:18.713Z,79.47
2022-11-06T22:43:45.591Z,80.15
2022-11-06T22:46:13.871Z,80.64
2022-11-06T22:48:40.538Z,80.70
2022-11-06T22:51:09.845Z,80.66
2022-11-06T22:53:36.966Z,80.95
2022-11-06T22:56:03.656Z,81.77
2022-11-06T22:58:31.439Z,81.32
2022-11-06T23:00:59.392Z,81.04
2022-11-06T23:03:28.513Z,81.50
2022-11-06T23:05:58.085Z,82.14
2022-11-06T23:08:27.296Z,82.03
2022-11-06T23:10:55.439Z,81.76
2022-11-06T23:13:22.918Z,82.66
2022-11-06T23:15:50.228Z,81.77
2022-11-06T23:18:17.127Z,82.42
2022-11-06T23:20:43.732Z,82.05
2022-11-06T23:23:10.428Z,82.35
2022-11-06T23:25:37.881Z,83.20
2022-11-06T23:28:04.743Z,83.26
2022-11-06T23:30:31.586Z,83.28
2022-11-06T23:32:58.833Z,82.99
2022-11-06T23:35:31.990Z,83.42
2022-11-06T23:37:59.612Z,83.90
2022-11-06T23:40:26.436Z,83.52
2022-11-06T23:42:56.070Z,83.46
2022-11-06T23:45:41.453Z,83.09
2022-11-06T23:48:15.411Z,83.94
2022-11-06T23:50:46.979Z,83.17
2022-11-06T23:53:16.146Z,83.58
2022-11-06T23:55:42.980Z,84.08
2022-11-06T23:58:09.895Z,84.35
